createdAt,value
2023-05-23T00:02:26.102Z,99.90
2023-05-23T00:04:58.698Z,99.90
2023-05-23T00:07:26.527Z,99.90
2023-05-23T00:09:53.724Z,99.90
2023-05-23T00:12:21.087Z,99.90
2023-05-23T00:14:48.315Z,99.90
2023-05-23T00:17:17.820Z,99.90
2023-05-23T00:19:45.846Z,99.90
2023-05-23T00:22:13.559Z,99.90
2023-05-23T00:24:40.851Z,99.90
2023-05-23T00:27:08.113Z,99.90
2023-05-23T00:29:35.368Z,99.90
2023-05-23T00:32:02.589Z,99.90
2023-05-23T00:34:29.874Z,99.90
2023-05-23T00:36:58.454Z,99.90
2023-05-23T00:39:25.725Z,99.90
2023-05-23T00:41:53.312Z,99.90
2023-05-23T00:44:21.679Z,99.90
2023-05-23T00:46:53.922Z,99.90
2023-05-23T00:49:21.479Z,99.90
2023-05-23T00:51:51.946Z,99.90
2023-05-23T00:54:24.928Z,99.90
2023-05-23T00:56:52.189Z,99.90
2023-05-23T00:59:21.645Z,99.90
2023-05-23T01:01:51.112Z,99.90
2023-05-23T01:04:20.221Z,99.90
2023-05-23T01:06:49.435Z,99.90
2023-05-23T01:12:43.834Z,99.90
2023-05-23T01:15:15.474Z,99.90
2023-05-23T01:17:58.802Z,99.90
2023-05-23T01:20:45.418Z,99.90
2023-05-23T01:23:41.769Z,99.90
2023-05-23T01:26:08.906Z,99.90
2023-05-23T01:28:42.071Z,99.90
2023-05-23T01:31:11.861Z,99.90
2023-05-23T01:33:41.412Z,99.90
2023-05-23T01:36:09.685Z,99.90
2023-05-23T01:38:37.037Z,99.90
2023-05-23T01:41:04.264Z,99.90
2023-05-23T01:43:31.582Z,99.90
2023-05-23T01:46:00.468Z,99.90
2023-05-23T01:48:29.504Z,99.90
2023-05-23T01:50:57.382Z,99.90
2023-05-23T01:53:25.746Z,99.90
2023-05-23T01:55:54.132Z,99.90
2023-05-23T01:58:21.771Z,99.90
2023-05-23T02:00:49.120Z,99.90
2023-05-23T02:03:16.939Z,99.90
2023-05-23T02:05:44.457Z,99.90
2023-05-23T02:08:11.737Z,99.90
2023-05-23T02:10:38.997Z,99.90
2023-05-23T02:13:06.292Z,99.90
2023-05-23T02:15:33.505Z,99.90
2023-05-23T02:18:02.412Z,99.90
2023-05-23T02:20:29.650Z,99.90
2023-05-23T02:22:56.779Z,99.90
2023-05-23T02:25:25.428Z,99.90
2023-05-23T02:27:52.666Z,99.90
2023-05-23T02:30:19.791Z,99.90
2023-05-23T02:32:47.774Z,99.90
2023-05-23T02:35:15.673Z,99.90
2023-05-23T02:37:42.986Z,99.90
2023-05-23T02:40:10.829Z,99.90
2023-05-23T02:42:38.210Z,99.90
2023-05-23T02:45:05.843Z,99.90
2023-05-23T02:47:33.103Z,99.90
2023-05-23T02:50:00.464Z,99.90
2023-05-23T02:52:27.694Z,99.90
2023-05-23T02:54:54.929Z,99.90
2023-05-23T02:57:22.144Z,99.90
2023-05-23T02:59:49.280Z,99.90
2023-05-23T03:02:16.656Z,99.90
2023-05-23T03:04:43.867Z,99.90
2023-05-23T03:07:20.584Z,99.90
2023-05-23T03:09:54.523Z,99.90
2023-05-23T03:12:21.639Z,99.90
2023-05-23T03:14:48.814Z,99.90
2023-05-23T03:17:16.346Z,99.90
2023-05-23T03:19:43.555Z,99.90
2023-05-23T03:22:10.719Z,99.90
2023-05-23T03:24:37.841Z,99.90
2023-05-23T03:27:05.153Z,99.90
2023-05-23T03:29:32.918Z,99.90
2023-05-23T03:32:00.204Z,99.90
2023-05-23T03:34:27.518Z,99.90
2023-05-23T03:36:54.672Z,99.90
2023-05-23T03:39:21.946Z,99.90
2023-05-23T03:41:49.054Z,99.90
2023-05-23T03:44:16.305Z,99.90
2023-05-23T03:46:43.491Z,99.90
2023-05-23T03:49:10.676Z,99.90
2023-05-23T03:51:37.845Z,99.90
2023-05-23T03:54:04.955Z,99.90
2023-05-23T03:56:32.036Z,99.90
2023-05-23T03:58:59.154Z,99.90
2023-05-23T04:01:26.271Z,99.90
2023-05-23T04:03:53.863Z,99.90
2023-05-23T04:06:22.971Z,99.90
2023-05-23T04:08:50.106Z,99.90
2023-05-23T04:11:18.333Z,99.90
2023-05-23T04:13:47.300Z,99.90
2023-05-23T04:16:14.644Z,99.90
2023-05-23T04:18:43.668Z,99.90
2023-05-23T04:21:11.866Z,99.90
2023-05-23T04:23:39.182Z,99.90
2023-05-23T04:26:06.520Z,99.90
2023-05-23T04:28:35.073Z,99.90
2023-05-23T04:31:03.468Z,99.90
2023-05-23T04:33:30.833Z,99.90
2023-05-23T04:35:58.136Z,99.90
2023-05-23T04:38:27.979Z,99.90
2023-05-23T04:40:55.630Z,99.90
2023-05-23T04:43:26.756Z,99.90
2023-05-23T04:45:54.666Z,99.90
2023-05-23T04:48:22.169Z,99.90
2023-05-23T04:50:51.341Z,99.90
2023-05-23T04:53:18.879Z,99.90
2023-05-23T04:55:46.402Z,99.90
2023-05-23T04:58:13.881Z,99.90
2023-05-23T05:00:41.351Z,99.90
2023-05-23T05:03:10.117Z,99.90
2023-05-23T05:05:37.570Z,99.90
2023-05-23T05:08:04.944Z,99.90
2023-05-23T05:10:32.103Z,99.90
2023-05-23T05:12:59.445Z,99.90
2023-05-23T05:15:26.599Z,99.00
2023-05-23T05:17:54.749Z,98.30
2023-05-23T05:20:22.723Z,99.90
2023-05-23T05:22:56.839Z,99.60
2023-05-23T05:25:24.590Z,96.50
2023-05-23T05:27:52.997Z,94.80
2023-05-23T05:30:20.513Z,94.40
2023-05-23T05:32:48.631Z,92.50
2023-05-23T05:35:17.154Z,92.10
2023-05-23T05:37:44.457Z,91.30
2023-05-23T05:40:13.466Z,90.90
2023-05-23T05:42:40.678Z,90.20
2023-05-23T05:45:08.182Z,90.50
2023-05-23T05:47:35.430Z,89.70
2023-05-23T05:50:03.692Z,88.40
2023-05-23T05:52:31.097Z,88.20
2023-05-23T05:54:58.296Z,88.50
2023-05-23T05:57:25.440Z,88.20
2023-05-23T05:59:52.652Z,88.60
2023-05-23T06:02:19.773Z,88.00
2023-05-23T06:04:47.647Z,87.60
2023-05-23T06:07:14.912Z,87.30
2023-05-23T06:09:42.313Z,88.10
2023-05-23T06:12:09.731Z,88.70
2023-05-23T06:14:36.928Z,88.00
2023-05-23T06:17:04.745Z,87.90
2023-05-23T06:19:32.118Z,86.70
2023-05-23T06:21:59.355Z,85.20
2023-05-23T06:24:26.509Z,85.70
2023-05-23T06:26:53.737Z,85.10
2023-05-23T06:29:20.996Z,83.40
2023-05-23T06:31:48.248Z,81.80
2023-05-23T06:34:17.184Z,81.00
2023-05-23T06:36:44.423Z,81.00
2023-05-23T06:39:11.699Z,81.20
2023-05-23T06:41:40.011Z,80.10
2023-05-23T06:44:07.242Z,80.30
2023-05-23T06:46:34.411Z,78.80
2023-05-23T06:49:13.693Z,79.10
2023-05-23T06:51:42.120Z,79.90
2023-05-23T06:54:09.430Z,81.30
2023-05-23T06:56:36.628Z,80.50
2023-05-23T06:59:03.905Z,79.80
2023-05-23T07:01:31.289Z,78.80
2023-05-23T07:03:58.706Z,78.50
2023-05-23T07:06:27.901Z,77.70
2023-05-23T07:08:55.194Z,76.40
2023-05-23T07:11:23.012Z,74.60
2023-05-23T07:13:50.546Z,76.20
2023-05-23T07:16:17.820Z,76.70
2023-05-23T07:18:45.023Z,76.60
2023-05-23T07:21:12.230Z,77.80
2023-05-23T07:23:40.984Z,76.60
2023-05-23T07:26:09.982Z,76.10
2023-05-23T07:28:37.774Z,75.60
2023-05-23T07:31:05.210Z,73.10
2023-05-23T07:33:34.682Z,74.80
2023-05-23T07:36:02.075Z,74.30
2023-05-23T07:38:29.415Z,74.60
2023-05-23T07:41:09.986Z,74.00
2023-05-23T07:43:38.596Z,74.50
2023-05-23T07:46:05.917Z,74.40
2023-05-23T07:48:33.488Z,74.10
2023-05-23T07:51:01.473Z,73.80
2023-05-23T07:53:28.733Z,72.70
2023-05-23T07:55:56.825Z,72.30
2023-05-23T07:58:24.132Z,69.90
2023-05-23T08:00:52.979Z,69.30
2023-05-23T08:03:20.775Z,68.00
2023-05-23T08:05:47.986Z,69.50
2023-05-23T08:08:15.101Z,69.60
2023-05-23T08:10:42.590Z,68.80
2023-05-23T08:13:10.684Z,68.10
2023-05-23T08:15:38.064Z,66.00
2023-05-23T08:18:05.751Z,66.70
2023-05-23T08:20:33.055Z,66.70
2023-05-23T08:23:03.479Z,66.10
2023-05-23T08:25:31.183Z,65.20
2023-05-23T08:27:59.720Z,64.60
2023-05-23T08:30:28.388Z,64.90
2023-05-23T08:32:56.917Z,63.90
2023-05-23T08:35:24.614Z,63.60
2023-05-23T08:37:52.596Z,64.40
2023-05-23T08:40:22.268Z,65.30
2023-05-23T08:42:50.808Z,64.30
2023-05-23T08:45:19.538Z,66.40
2023-05-23T08:47:47.639Z,64.70
2023-05-23T08:50:18.114Z,64.30
2023-05-23T08:52:58.413Z,64.20
2023-05-23T08:55:28.241Z,63.00
2023-05-23T08:57:56.603Z,63.30
2023-05-23T09:00:25.521Z,63.20
2023-05-23T09:02:54.745Z,63.00
2023-05-23T09:05:22.833Z,62.30
2023-05-23T09:07:51.303Z,61.90
2023-05-23T09:10:22.852Z,61.80
2023-05-23T09:12:50.617Z,61.90
2023-05-23T09:15:17.805Z,62.60
2023-05-23T09:17:45.804Z,61.60
2023-05-23T09:20:18.229Z,62.60
2023-05-23T09:22:49.272Z,61.70
2023-05-23T09:25:16.775Z,62.10
2023-05-23T09:27:47.545Z,61.70
2023-05-23T09:30:15.987Z,61.30
2023-05-23T09:32:44.929Z,63.20
2023-05-23T09:35:14.448Z,62.80
2023-05-23T09:37:47.151Z,63.10
2023-05-23T09:40:16.000Z,65.00
2023-05-23T09:42:48.557Z,64.40
2023-05-23T09:45:16.463Z,62.10
2023-05-23T09:47:52.019Z,61.70
2023-05-23T09:50:20.257Z,64.00
2023-05-23T09:52:48.227Z,62.60
2023-05-23T09:55:15.728Z,63.00
2023-05-23T09:57:44.363Z,62.70
2023-05-23T10:00:14.044Z,63.10
2023-05-23T10:03:15.362Z,62.90
2023-05-23T10:05:47.832Z,62.90
2023-05-23T10:08:20.687Z,63.00
2023-05-23T10:10:57.119Z,63.70
2023-05-23T10:13:34.383Z,62.70
2023-05-23T10:16:19.637Z,62.10
2023-05-23T10:18:55.817Z,62.20
2023-05-23T10:21:36.391Z,61.90
2023-05-23T10:24:07.534Z,60.20
2023-05-23T10:26:36.109Z,60.90
2023-05-23T10:29:03.728Z,62.80
2023-05-23T10:31:32.023Z,61.10
2023-05-23T10:34:09.388Z,61.50
2023-05-23T10:37:08.199Z,60.60
2023-05-23T10:39:58.100Z,59.10
2023-05-23T10:42:31.172Z,59.70
2023-05-23T10:45:17.560Z,59.80
2023-05-23T10:47:45.573Z,60.80
2023-05-23T10:50:17.533Z,59.70
2023-05-23T10:52:45.936Z,59.50
2023-05-23T10:55:19.907Z,59.90
2023-05-23T10:57:48.468Z,60.00
2023-05-23T11:00:17.553Z,59.20
2023-05-23T11:02:55.870Z,59.80
2023-05-23T11:05:27.075Z,60.20
2023-05-23T11:08:14.313Z,60.00
2023-05-23T11:10:59.757Z,60.60
2023-05-23T11:13:47.776Z,60.10
2023-05-23T11:16:41.913Z,58.80
2023-05-23T11:19:23.254Z,59.50
2023-05-23T11:22:01.397Z,59.20
2023-05-23T11:24:57.575Z,59.10
2023-05-23T11:27:40.985Z,59.30
2023-05-23T11:30:09.070Z,58.70
2023-05-23T11:32:37.753Z,58.30
2023-05-23T11:35:08.106Z,59.20
2023-05-23T11:37:36.240Z,57.90
2023-05-23T11:40:29.769Z,56.40
2023-05-23T11:42:57.805Z,57.60
2023-05-23T11:45:26.056Z,56.90
2023-05-23T11:47:53.630Z,57.30
2023-05-23T11:50:21.134Z,56.60
2023-05-23T11:52:52.184Z,56.40
2023-05-23T11:55:23.500Z,56.40
2023-05-23T11:57:52.013Z,56.30
2023-05-23T12:00:19.833Z,55.90
2023-05-23T12:02:50.681Z,56.50
2023-05-23T12:05:18.634Z,54.60
2023-05-23T12:07:48.375Z,55.10
2023-05-23T12:10:22.772Z,56.40
2023-05-23T12:12:52.226Z,56.10
2023-05-23T12:15:19.532Z,56.50
2023-05-23T12:17:47.448Z,55.50
2023-05-23T12:20:14.792Z,54.60
2023-05-23T12:22:43.244Z,55.30
2023-05-23T12:25:13.726Z,56.30
2023-05-23T12:27:44.394Z,54.60
2023-05-23T12:30:16.687Z,54.80
2023-05-23T12:32:47.172Z,55.90
2023-05-23T12:35:16.244Z,53.90
2023-05-23T12:37:47.118Z,53.40
2023-05-23T12:40:18.921Z,53.30
2023-05-23T12:42:53.281Z,54.20
2023-05-23T12:45:25.192Z,52.80
2023-05-23T12:47:54.189Z,54.00
2023-05-23T12:50:21.984Z,53.90
2023-05-23T12:52:49.298Z,54.20
2023-05-23T12:55:16.639Z,54.70
2023-05-23T12:57:44.536Z,54.50
2023-05-23T13:00:12.773Z,53.50
2023-05-23T13:02:40.198Z,54.60
2023-05-23T13:05:08.223Z,54.00
2023-05-23T13:07:35.599Z,53.80
2023-05-23T13:10:03.158Z,52.90
2023-05-23T13:12:30.961Z,54.20
2023-05-23T13:14:59.030Z,53.60
2023-05-23T13:17:27.597Z,52.90
2023-05-23T13:19:54.785Z,54.00
2023-05-23T13:22:22.021Z,52.40
2023-05-23T13:24:49.158Z,52.70
2023-05-23T13:27:16.336Z,52.30
2023-05-23T13:29:44.314Z,52.70
2023-05-23T13:32:11.739Z,54.30
2023-05-23T13:34:39.048Z,55.00
2023-05-23T13:37:06.344Z,53.00
2023-05-23T13:39:33.736Z,52.70
2023-05-23T13:42:01.013Z,52.30
2023-05-23T13:44:28.493Z,52.80
2023-05-23T13:46:58.692Z,53.50
2023-05-23T13:49:26.179Z,52.90
2023-05-23T13:51:53.462Z,52.10
2023-05-23T13:54:20.677Z,52.90
2023-05-23T13:56:47.929Z,53.20
2023-05-23T13:59:19.373Z,53.00
2023-05-23T14:01:46.846Z,53.00
2023-05-23T14:04:14.240Z,52.40
2023-05-23T14:06:41.470Z,53.10
2023-05-23T14:09:09.251Z,52.60
2023-05-23T14:11:36.427Z,52.70
2023-05-23T14:14:03.928Z,52.50
2023-05-23T14:16:32.027Z,52.30
2023-05-23T14:18:59.406Z,52.60
2023-05-23T14:21:26.713Z,52.10
2023-05-23T14:23:54.155Z,52.80
2023-05-23T14:26:22.599Z,52.10
2023-05-23T14:28:49.847Z,51.70
2023-05-23T14:31:17.148Z,52.10
2023-05-23T14:33:44.572Z,52.10
2023-05-23T14:36:11.845Z,51.90
2023-05-23T14:38:39.859Z,51.40
2023-05-23T14:41:07.164Z,51.30
2023-05-23T14:43:34.573Z,51.80
2023-05-23T14:46:02.905Z,51.70
2023-05-23T14:48:33.927Z,51.90
2023-05-23T14:51:02.360Z,51.50
2023-05-23T14:53:42.269Z,49.80
2023-05-23T14:56:13.133Z,48.70
2023-05-23T14:58:54.182Z,48.10
2023-05-23T15:01:28.355Z,47.00
2023-05-23T15:03:56.534Z,47.20
2023-05-23T15:06:24.752Z,47.50
2023-05-23T15:08:53.367Z,46.90
2023-05-23T15:11:22.808Z,47.30
2023-05-23T15:13:50.894Z,46.70
2023-05-23T15:16:23.497Z,47.30
2023-05-23T15:18:52.709Z,46.80
2023-05-23T15:21:23.670Z,46.20
2023-05-23T15:23:53.985Z,47.60
2023-05-23T15:26:25.007Z,46.80
2023-05-23T15:28:55.153Z,47.10
2023-05-23T15:31:25.051Z,47.90
2023-05-23T15:33:54.014Z,47.10
2023-05-23T15:36:27.318Z,48.00
2023-05-23T15:39:04.134Z,47.80
2023-05-23T15:41:33.542Z,48.20
2023-05-23T15:44:02.607Z,48.20
2023-05-23T15:46:35.270Z,47.70
2023-05-23T15:49:21.587Z,48.80
2023-05-23T15:51:55.697Z,50.10
2023-05-23T15:54:24.725Z,51.70
2023-05-23T15:56:54.129Z,51.90
2023-05-23T15:59:23.265Z,52.80
2023-05-23T16:01:53.463Z,53.10
2023-05-23T16:04:22.889Z,53.50
2023-05-23T16:06:57.188Z,54.10
2023-05-23T16:09:24.824Z,54.70
2023-05-23T16:11:53.018Z,55.30
2023-05-23T16:14:20.292Z,54.80
2023-05-23T16:16:47.632Z,56.70
2023-05-23T16:19:14.899Z,55.00
2023-05-23T16:21:42.277Z,53.90
2023-05-23T16:24:10.176Z,53.70
2023-05-23T16:26:40.614Z,54.30
2023-05-23T16:29:09.357Z,54.60
2023-05-23T16:31:37.802Z,55.20
2023-05-23T16:34:06.442Z,55.50
2023-05-23T16:36:34.945Z,54.70
2023-05-23T16:39:03.226Z,55.10
2023-05-23T16:41:35.782Z,55.00
2023-05-23T16:44:05.310Z,55.60
2023-05-23T16:46:36.148Z,55.70
2023-05-23T16:49:05.391Z,55.60
2023-05-23T16:51:36.531Z,56.20
2023-05-23T16:54:05.335Z,56.60
2023-05-23T16:56:36.513Z,56.70
2023-05-23T16:59:11.093Z,57.20
2023-05-23T17:01:44.680Z,57.70
2023-05-23T17:04:20.477Z,56.80
2023-05-23T17:06:54.416Z,57.00
2023-05-23T17:09:28.405Z,57.50
2023-05-23T17:12:02.281Z,57.60
2023-05-23T17:14:35.511Z,57.60
2023-05-23T17:17:05.547Z,58.20
2023-05-23T17:19:32.949Z,58.60
2023-05-23T17:22:01.258Z,59.80
2023-05-23T17:24:28.829Z,60.20
2023-05-23T17:26:56.078Z,60.10
2023-05-23T17:29:23.398Z,61.20
2023-05-23T17:31:51.194Z,61.00
2023-05-23T17:34:18.747Z,61.10
2023-05-23T17:36:46.149Z,61.80
2023-05-23T17:39:14.913Z,62.30
2023-05-23T17:41:43.234Z,63.00
2023-05-23T17:44:10.521Z,63.60
2023-05-23T17:46:37.804Z,64.50
2023-05-23T17:49:05.066Z,65.30
2023-05-23T17:51:33.566Z,66.30
2023-05-23T17:54:00.975Z,66.50
2023-05-23T17:56:28.227Z,67.60
2023-05-23T17:58:55.402Z,67.90
2023-05-23T18:01:22.744Z,68.40
2023-05-23T18:03:50.119Z,69.60
2023-05-23T18:06:17.419Z,69.90
2023-05-23T18:08:44.594Z,70.00
2023-05-23T18:11:11.869Z,70.60
2023-05-23T18:13:39.072Z,71.00
2023-05-23T18:16:06.273Z,71.70
2023-05-23T18:18:33.706Z,72.00
2023-05-23T18:21:01.195Z,72.60
2023-05-23T18:23:28.370Z,72.70
2023-05-23T18:25:55.640Z,73.00
2023-05-23T18:28:22.933Z,74.70
2023-05-23T18:30:50.246Z,74.60
2023-05-23T18:33:17.623Z,74.10
2023-05-23T18:35:47.019Z,74.40
2023-05-23T18:38:14.371Z,75.40
2023-05-23T18:40:41.944Z,75.40
2023-05-23T18:43:09.321Z,75.90
2023-05-23T18:45:37.182Z,76.10
2023-05-23T18:48:04.509Z,76.40
2023-05-23T18:50:31.817Z,76.80
2023-05-23T18:52:59.118Z,77.60
2023-05-23T18:55:26.370Z,78.60
2023-05-23T18:57:54.104Z,79.00
2023-05-23T19:00:21.936Z,80.10
2023-05-23T19:02:49.413Z,80.60
2023-05-23T19:05:16.766Z,81.60
2023-05-23T19:07:43.999Z,83.20
2023-05-23T19:10:12.772Z,83.90
2023-05-23T19:12:44.591Z,84.40
2023-05-23T19:15:12.251Z,85.60
2023-05-23T19:17:39.522Z,87.70
2023-05-23T19:20:08.501Z,89.00
2023-05-23T19:22:50.339Z,90.30
2023-05-23T19:25:20.976Z,92.10
2023-05-23T19:27:57.344Z,92.80
2023-05-23T19:30:30.844Z,93.60
2023-05-23T19:33:05.055Z,94.50
2023-05-23T19:35:40.248Z,95.90
2023-05-23T19:38:15.247Z,97.90
2023-05-23T19:40:50.089Z,98.50
2023-05-23T19:43:17.944Z,99.90
2023-05-23T19:45:45.253Z,99.90
2023-05-23T19:48:12.898Z,99.90
2023-05-23T19:50:43.473Z,99.90
2023-05-23T19:53:13.367Z,99.90
2023-05-23T19:55:42.580Z,99.90
2023-05-23T19:58:10.170Z,99.90
2023-05-23T20:00:41.191Z,99.90
2023-05-23T20:03:10.782Z,99.90
2023-05-23T20:05:38.120Z,99.90
2023-05-23T20:08:05.435Z,99.90
2023-05-23T20:10:36.415Z,99.90
2023-05-23T20:13:06.914Z,99.90
2023-05-23T20:15:39.865Z,99.90
2023-05-23T20:18:28.683Z,99.90
2023-05-23T20:20:58.196Z,99.90
2023-05-23T20:23:25.567Z,99.90
2023-05-23T20:25:53.221Z,99.90
2023-05-23T20:28:20.640Z,99.90
2023-05-23T20:30:49.171Z,99.90
2023-05-23T20:33:18.692Z,99.90
2023-05-23T20:35:48.655Z,99.90
2023-05-23T20:38:19.419Z,99.90
2023-05-23T20:40:52.456Z,99.90
2023-05-23T20:43:22.941Z,99.90
2023-05-23T20:45:50.725Z,99.90
2023-05-23T20:48:17.980Z,99.90
2023-05-23T20:50:45.762Z,99.90
2023-05-23T20:53:12.989Z,99.90
2023-05-23T20:55:40.554Z,99.90
2023-05-23T20:58:09.011Z,99.90
2023-05-23T21:00:36.146Z,99.90
2023-05-23T21:03:03.522Z,99.90
2023-05-23T21:05:30.861Z,99.90
2023-05-23T21:07:58.132Z,99.90
2023-05-23T21:10:25.374Z,99.90
2023-05-23T21:12:52.772Z,99.90
2023-05-23T21:15:20.321Z,99.90
2023-05-23T21:17:47.587Z,99.90
2023-05-23T21:20:14.825Z,99.90
2023-05-23T21:22:42.146Z,99.90
2023-05-23T21:25:09.590Z,99.90
2023-05-23T21:27:36.741Z,99.90
2023-05-23T21:30:05.195Z,99.90
2023-05-23T21:32:32.533Z,99.90
2023-05-23T21:35:00.462Z,99.90
2023-05-23T21:37:27.825Z,99.90
2023-05-23T21:39:55.054Z,99.90
2023-05-23T21:42:22.493Z,99.90
2023-05-23T21:44:49.742Z,99.90
2023-05-23T21:47:17.057Z,99.90
2023-05-23T21:49:44.225Z,99.90
2023-05-23T21:52:11.650Z,99.90
2023-05-23T21:54:38.921Z,99.90
2023-05-23T21:57:06.283Z,99.90
2023-05-23T21:59:33.499Z,99.90
2023-05-23T22:02:01.130Z,99.90
2023-05-23T22:04:28.539Z,99.90
2023-05-23T22:06:56.086Z,99.90
2023-05-23T22:09:23.296Z,99.90
2023-05-23T22:11:50.832Z,99.90
2023-05-23T22:14:18.148Z,99.90
2023-05-23T22:16:45.623Z,99.90
2023-05-23T22:19:13.225Z,99.90
2023-05-23T22:21:40.409Z,99.90
2023-05-23T22:24:07.778Z,99.90
2023-05-23T22:26:34.871Z,99.90
2023-05-23T22:29:02.324Z,99.90
2023-05-23T22:31:29.621Z,99.90
2023-05-23T22:33:57.108Z,99.90
2023-05-23T22:36:24.515Z,99.90
2023-05-23T22:38:51.796Z,99.90
2023-05-23T22:41:19.275Z,99.90
2023-05-23T22:43:47.148Z,99.90
2023-05-23T22:46:14.990Z,99.90
2023-05-23T22:48:42.383Z,99.90
2023-05-23T22:51:09.901Z,99.90
2023-05-23T22:53:37.075Z,99.90
2023-05-23T22:56:04.503Z,99.90
2023-05-23T22:58:31.783Z,99.90
2023-05-23T23:00:59.310Z,99.90
2023-05-23T23:03:26.973Z,99.90
2023-05-23T23:05:54.789Z,99.90
2023-05-23T23:08:21.988Z,99.90
2023-05-23T23:10:49.196Z,99.90
2023-05-23T23:13:16.641Z,99.90
2023-05-23T23:15:44.145Z,99.90
2023-05-23T23:18:13.906Z,99.90
2023-05-23T23:20:41.698Z,99.90
2023-05-23T23:23:09.074Z,99.90
2023-05-23T23:25:36.659Z,99.90
2023-05-23T23:28:04.269Z,99.90
2023-05-23T23:30:31.531Z,99.90
2023-05-23T23:32:58.773Z,99.90
2023-05-23T23:35:26.218Z,99.90
2023-05-23T23:37:53.475Z,99.90
2023-05-23T23:40:20.747Z,99.90
2023-05-23T23:42:48.064Z,99.90
2023-05-23T23:45:18.293Z,99.90
2023-05-23T23:47:46.607Z,99.90
2023-05-23T23:50:14.175Z,99.90
2023-05-23T23:52:41.787Z,99.90
2023-05-23T23:55:09.292Z,99.90
2023-05-23T23:57:36.465Z,99.90
